Time;durP1;ratioP1;P1;durP2;ratioP2;P2;SDS_P1;SDS_P2;PMS_P1;PMS_P2;Temp;Humidity;BMP_temperature;BMP_pressure;BME280_temperature;BME280_humidity;BME280_pressure;Samples;Min_cycle;Max_cycle;Signal;HPM_P1;HPM_P2
2022/01/14 00:02:09;;;;;;;26.43;15.23;;;-1.10;99.90;;;;;;4951629;28;20422;-74
2022/01/14 00:04:35;;;;;;;25.03;14.97;;;-1.10;99.90;;;;;;4951681;28;20984;-74
2022/01/14 00:07:01;;;;;;;23.03;13.63;;;-1.20;99.90;;;;;;4954983;28;20191;-74
2022/01/14 00:09:27;;;;;;;27.97;12.73;;;-1.30;99.90;;;;;;4955422;28;20449;-74
2022/01/14 00:11:57;;;;;;;26.37;13.80;;;-1.30;99.90;;;;;;4956026;28;21105;-74
2022/01/14 00:16:53;;;;;;;23.80;12.90;;;-1.30;99.90;;;;;;4956365;28;20428;-75
2022/01/14 00:19:19;;;;;;;23.03;12.60;;;-1.30;99.90;;;;;;4955934;29;20464;-74
2022/01/14 00:21:45;;;;;;;23.37;12.60;;;-1.30;99.90;;;;;;4955526;28;20282;-74
2022/01/14 00:32:49;;;;;;;21.17;12.40;;;-1.40;99.90;;;;;;4914953;29;20519;-74
2022/01/14 00:35:15;;;;;;;28.10;13.10;;;-1.40;99.90;;;;;;4943040;28;20454;-73
2022/01/14 00:37:41;;;;;;;27.10;12.33;;;-1.40;99.90;;;;;;4955120;28;20910;-73
2022/01/14 00:40:07;;;;;;;27.87;13.37;;;-1.40;99.90;;;;;;4955419;29;20427;-74
2022/01/14 00:42:32;;;;;;;25.20;12.00;;;-1.40;99.90;;;;;;4955350;28;20196;-73
2022/01/14 00:44:58;;;;;;;27.80;13.20;;;-1.40;99.90;;;;;;4954723;29;20446;-74
2022/01/14 00:47:24;;;;;;;27.50;14.93;;;-1.40;99.90;;;;;;4955282;29;20172;-73
2022/01/14 00:49:49;;;;;;;27.87;14.87;;;-1.40;99.90;;;;;;4954196;29;20545;-74
2022/01/14 00:52:14;;;;;;;26.30;13.83;;;-1.30;99.90;;;;;;4955240;28;20197;-74
2022/01/14 00:54:40;;;;;;;32.93;15.83;;;-1.40;99.90;;;;;;4954698;29;20581;-73
2022/01/14 00:59:34;;;;;;;28.20;14.10;;;-1.40;99.90;;;;;;4954874;28;20686;-73
2022/01/14 05:32:05;;;;;;;25.23;14.47;;;-2.20;99.90;;;;;;5543708;23;20258;-69
2022/01/14 05:34:32;;;;;;;31.60;16.17;;;-2.20;99.90;;;;;;4951569;29;20437;-75
2022/01/14 05:36:58;;;;;;;31.93;16.67;;;-2.20;99.90;;;;;;4952473;29;20505;-74
2022/01/14 05:39:24;;;;;;;27.33;15.37;;;-2.20;99.90;;;;;;4955646;28;20893;-73
2022/01/14 05:41:51;;;;;;;27.50;15.87;;;-2.20;99.90;;;;;;4953565;28;20485;-72
2022/01/14 05:44:17;;;;;;;31.33;17.40;;;-2.20;99.90;;;;;;4955302;28;20579;-73
2022/01/14 05:46:43;;;;;;;29.00;16.20;;;-2.20;99.90;;;;;;4954209;28;20420;-74
2022/01/14 05:49:09;;;;;;;32.87;16.93;;;-2.20;99.90;;;;;;4953510;28;20579;-74
2022/01/14 05:51:34;;;;;;;27.87;16.10;;;-2.10;99.90;;;;;;4953838;28;20683;-74
2022/01/14 05:54:00;;;;;;;31.40;16.83;;;-2.20;99.90;;;;;;4951859;28;20269;-74
2022/01/14 05:56:25;;;;;;;32.20;15.90;;;-2.20;99.90;;;;;;4954077;28;20782;-73
2022/01/14 05:58:51;;;;;;;35.03;17.90;;;-2.20;99.90;;;;;;4955434;28;20190;-74
2022/01/14 06:01:17;;;;;;;34.93;16.97;;;-2.20;99.90;;;;;;4954859;28;20198;-74
2022/01/14 06:03:42;;;;;;;32.30;17.67;;;-2.20;99.90;;;;;;4949664;28;20281;-74
2022/01/14 06:06:08;;;;;;;27.77;15.80;;;-2.20;99.90;;;;;;4955568;28;20177;-75
2022/01/14 06:08:33;;;;;;;38.13;17.27;;;-2.20;99.90;;;;;;4954269;28;20203;-74
2022/01/14 06:10:59;;;;;;;32.93;17.20;;;-2.20;99.90;;;;;;4955094;28;20686;-75
2022/01/14 06:13:24;;;;;;;34.10;17.13;;;-2.20;99.90;;;;;;4953275;28;20686;-75
2022/01/14 06:15:50;;;;;;;29.67;16.90;;;-2.20;99.90;;;;;;4951833;28;20240;-73
2022/01/14 06:18:16;;;;;;;33.20;17.00;;;-2.20;99.90;;;;;;4952441;28;20196;-73
2022/01/14 06:20:42;;;;;;;29.83;16.37;;;-2.20;99.90;;;;;;4954691;28;20181;-73
2022/01/14 06:23:08;;;;;;;30.13;15.53;;;-2.30;99.90;;;;;;4953397;29;20182;-73
2022/01/14 06:25:33;;;;;;;27.37;16.73;;;-2.20;99.90;;;;;;4950560;28;20747;-74
2022/01/14 06:27:59;;;;;;;36.33;17.27;;;-2.20;99.90;;;;;;4954530;28;20264;-73
2022/01/14 06:30:24;;;;;;;29.43;16.00;;;-2.20;99.90;;;;;;4953207;28;20248;-70
2022/01/14 06:32:54;;;;;;;26.20;15.23;;;-2.10;99.90;;;;;;4952282;28;20208;-73
2022/01/14 06:35:20;;;;;;;29.73;15.53;;;-2.10;99.90;;;;;;4942250;29;20239;-74
2022/01/14 06:37:46;;;;;;;27.50;15.13;;;-2.20;99.90;;;;;;4935488;29;20422;-74
2022/01/14 06:40:12;;;;;;;28.23;15.40;;;-2.10;99.90;;;;;;4939954;29;20189;-74
2022/01/14 06:42:37;;;;;;;30.47;15.00;;;-2.20;99.90;;;;;;4954318;28;20222;-74
2022/01/14 06:45:05;;;;;;;28.20;14.73;;;-2.20;99.90;;;;;;4952787;28;20440;-74
2022/01/14 06:47:31;;;;;;;30.00;14.07;;;-2.10;99.90;;;;;;4940117;29;20185;-72
2022/01/14 06:49:56;;;;;;;26.20;14.13;;;-2.10;99.90;;;;;;4949401;29;20429;-72
2022/01/14 06:52:23;;;;;;;24.20;13.87;;;-2.20;99.90;;;;;;4953059;28;20542;-74
2022/01/14 06:54:48;;;;;;;26.77;14.70;;;-2.10;99.90;;;;;;4954180;29;20212;-73
2022/01/14 06:57:15;;;;;;;22.37;14.10;;;-2.10;99.90;;;;;;4951047;28;20516;-73
2022/01/14 06:59:40;;;;;;;33.30;13.80;;;-2.10;99.90;;;;;;4953131;29;20190;-76
2022/01/14 07:02:06;;;;;;;25.70;13.40;;;-2.10;99.90;;;;;;4952023;28;20824;-73
2022/01/14 07:04:33;;;;;;;22.57;13.07;;;-2.10;99.90;;;;;;4951442;28;20220;-73
2022/01/14 07:06:58;;;;;;;26.93;13.07;;;-2.10;99.90;;;;;;4952595;28;20243;-73
2022/01/14 07:09:24;;;;;;;26.40;12.57;;;-2.00;99.90;;;;;;4950724;28;20528;-72
2022/01/14 07:11:56;;;;;;;28.30;13.43;;;-2.00;99.90;;;;;;4953541;28;20200;-72
2022/01/14 07:14:21;;;;;;;23.50;11.40;;;-2.10;99.90;;;;;;4952266;28;20196;-72
2022/01/14 07:16:47;;;;;;;16.80;10.73;;;-2.10;99.90;;;;;;4953620;28;20395;-72
2022/01/14 07:19:15;;;;;;;25.20;13.30;;;-2.10;99.90;;;;;;4947312;28;20232;-73
2022/01/14 07:21:40;;;;;;;22.70;11.93;;;-2.10;99.90;;;;;;4953537;28;20707;-72
2022/01/14 07:24:06;;;;;;;21.63;11.80;;;-2.10;99.90;;;;;;4951983;28;20439;-72
2022/01/14 07:26:32;;;;;;;21.73;12.50;;;-2.10;99.90;;;;;;4953762;28;20209;-72
2022/01/14 07:28:58;;;;;;;20.77;12.67;;;-2.20;99.90;;;;;;4952202;28;20554;-72
2022/01/14 07:31:24;;;;;;;20.00;11.53;;;-2.10;99.90;;;;;;4950089;28;20422;-72
2022/01/14 07:33:50;;;;;;;22.90;12.87;;;-2.10;99.90;;;;;;4949531;28;20416;-73
2022/01/14 07:36:15;;;;;;;17.87;10.13;;;-2.10;99.90;;;;;;4950296;28;20194;-73
2022/01/14 07:38:41;;;;;;;20.10;10.70;;;-2.10;99.90;;;;;;4953331;28;20177;-72
2022/01/14 07:41:07;;;;;;;23.70;11.50;;;-2.00;99.90;;;;;;4948772;28;20292;-74
2022/01/14 07:43:34;;;;;;;20.53;11.73;;;-2.00;99.90;;;;;;4942639;28;20677;-74
2022/01/14 07:46:00;;;;;;;17.83;11.30;;;-2.00;99.90;;;;;;4939415;29;20465;-73
2022/01/14 07:48:25;;;;;;;17.50;11.53;;;-1.90;99.90;;;;;;4938036;29;20408;-74
2022/01/14 07:50:51;;;;;;;17.13;9.90;;;-1.90;99.90;;;;;;4950710;28;20207;-74
2022/01/14 07:53:16;;;;;;;14.17;8.27;;;-1.80;99.90;;;;;;4950890;29;20719;-74
2022/01/14 07:55:42;;;;;;;16.90;9.03;;;-1.80;99.90;;;;;;4951963;28;20199;-74
2022/01/14 07:58:07;;;;;;;18.70;9.83;;;-1.80;99.90;;;;;;4953269;28;20182;-74
2022/01/14 08:00:35;;;;;;;13.47;7.97;;;-1.70;99.90;;;;;;4951874;28;20525;-73
2022/01/14 08:03:01;;;;;;;18.57;9.03;;;-1.60;99.90;;;;;;4946275;28;20286;-73
2022/01/14 08:05:27;;;;;;;20.40;9.50;;;-1.60;99.90;;;;;;4948018;29;20605;-74
2022/01/14 08:07:55;;;;;;;19.43;10.37;;;-1.50;99.90;;;;;;4951899;28;20452;-74
2022/01/14 08:10:21;;;;;;;20.57;11.30;;;-1.40;99.90;;;;;;4952982;28;20501;-75
2022/01/14 08:12:47;;;;;;;15.83;9.83;;;-1.40;99.90;;;;;;4948678;28;20938;-72
2022/01/14 08:15:13;;;;;;;16.53;10.10;;;-1.30;99.90;;;;;;4952913;29;20183;-73
2022/01/14 08:17:39;;;;;;;13.93;9.43;;;-1.20;99.90;;;;;;4946898;28;20186;-73
2022/01/14 08:20:05;;;;;;;20.33;10.40;;;-1.20;99.90;;;;;;4950289;28;20265;-73
2022/01/14 08:22:31;;;;;;;18.43;10.93;;;-1.20;99.90;;;;;;4951710;28;20438;-73
2022/01/14 08:24:58;;;;;;;16.67;10.07;;;-1.10;99.90;;;;;;4952268;28;20569;-73
2022/01/14 08:27:26;;;;;;;18.83;10.93;;;-1.00;99.90;;;;;;4955301;29;20183;-73
2022/01/14 08:29:52;;;;;;;23.47;11.10;;;-1.00;99.90;;;;;;4940888;29;20418;-75
2022/01/14 08:32:18;;;;;;;19.70;11.37;;;-0.90;99.90;;;;;;4937288;29;20819;-74
2022/01/14 08:34:43;;;;;;;19.00;11.83;;;-0.90;99.90;;;;;;4946247;29;20531;-74
2022/01/14 08:37:09;;;;;;;20.03;11.27;;;-0.80;99.90;;;;;;4956346;28;20241;-74
2022/01/14 08:39:34;;;;;;;28.80;14.10;;;-0.70;99.90;;;;;;4953330;28;20192;-75
2022/01/14 08:42:02;;;;;;;24.90;12.47;;;-0.60;99.90;;;;;;4956324;28;20251;-74
2022/01/14 08:44:28;;;;;;;20.60;12.00;;;-0.50;99.90;;;;;;4954228;28;20462;-74
2022/01/14 08:46:55;;;;;;;18.30;12.37;;;-0.40;99.90;;;;;;4953387;28;20425;-75
2022/01/14 08:49:21;;;;;;;21.93;13.20;;;-0.30;99.90;;;;;;4954188;28;20192;-75
2022/01/14 08:51:47;;;;;;;17.97;11.60;;;-0.20;99.90;;;;;;4954307;29;20463;-74
2022/01/14 08:54:13;;;;;;;25.03;14.20;;;0.00;99.90;;;;;;4955113;28;21043;-74
2022/01/14 08:56:38;;;;;;;22.13;13.37;;;0.00;99.90;;;;;;4952411;28;20408;-74
2022/01/14 08:59:04;;;;;;;22.63;13.63;;;0.10;99.90;;;;;;4954571;29;20181;-75
2022/01/14 09:01:30;;;;;;;25.53;15.33;;;0.20;99.90;;;;;;4952206;28;20223;-74
2022/01/14 09:03:56;;;;;;;27.83;14.47;;;0.30;99.90;;;;;;4945967;28;20442;-74
2022/01/14 09:06:21;;;;;;;24.23;14.70;;;0.50;99.90;;;;;;4954559;28;20404;-73
2022/01/14 09:08:47;;;;;;;28.73;13.63;;;0.60;99.90;;;;;;4954770;28;20181;-74
2022/01/14 09:11:12;;;;;;;26.87;15.17;;;0.80;99.90;;;;;;4956059;28;20681;-74
2022/01/14 09:13:38;;;;;;;22.20;13.73;;;0.80;99.90;;;;;;4954407;28;20264;-74
2022/01/14 09:16:04;;;;;;;21.23;13.57;;;1.10;99.90;;;;;;4955692;28;20321;-74
2022/01/14 09:18:29;;;;;;;24.90;14.30;;;1.40;99.90;;;;;;4952407;28;20189;-73
2022/01/14 09:20:58;;;;;;;23.73;14.87;;;2.10;99.90;;;;;;4953845;29;20690;-74
2022/01/14 09:23:25;;;;;;;23.43;14.67;;;2.80;99.90;;;;;;4954535;28;20593;-75
2022/01/14 09:25:52;;;;;;;21.63;13.60;;;3.40;99.90;;;;;;4955171;28;20464;-74
2022/01/14 09:28:18;;;;;;;23.50;14.30;;;4.00;99.90;;;;;;4955970;28;20504;-74
2022/01/14 09:30:43;;;;;;;22.43;13.80;;;4.60;99.90;;;;;;4951520;28;20497;-74
2022/01/14 09:33:09;;;;;;;25.27;14.87;;;5.20;99.90;;;;;;4954286;28;20196;-74
2022/01/14 09:35:35;;;;;;;23.87;15.17;;;5.40;99.90;;;;;;4950402;29;20705;-74
2022/01/14 09:38:00;;;;;;;26.30;17.30;;;5.70;99.90;;;;;;4954617;28;20181;-74
2022/01/14 09:40:27;;;;;;;24.20;16.20;;;6.10;99.90;;;;;;4954248;28;20176;-72
2022/01/14 09:42:59;;;;;;;22.43;15.47;;;6.40;99.90;;;;;;4951797;29;20691;-73
2022/01/14 09:45:28;;;;;;;28.23;16.07;;;6.50;99.90;;;;;;4954448;28;20467;-73
2022/01/14 09:47:54;;;;;;;25.67;17.10;;;6.70;99.90;;;;;;4953619;29;20792;-74
2022/01/14 09:50:20;;;;;;;27.77;17.77;;;6.80;99.90;;;;;;4953757;29;20788;-74
2022/01/14 09:52:49;;;;;;;29.33;17.90;;;6.90;99.90;;;;;;4952361;28;20454;-73
2022/01/14 09:55:15;;;;;;;28.23;18.20;;;7.10;99.90;;;;;;4955014;28;20391;-75
2022/01/14 09:57:41;;;;;;;33.87;17.70;;;7.40;99.90;;;;;;4953914;28;20434;-74
2022/01/14 10:00:07;;;;;;;28.93;17.60;;;7.50;99.90;;;;;;4955068;28;20925;-74
2022/01/14 10:02:40;;;;;;;29.40;18.60;;;7.80;99.90;;;;;;4952864;28;20255;-75
2022/01/14 10:05:09;;;;;;;27.87;19.87;;;7.90;99.90;;;;;;4950800;28;20472;-74
2022/01/14 10:07:36;;;;;;;33.60;21.17;;;7.80;99.90;;;;;;4954785;28;20405;-74
2022/01/14 10:10:22;;;;;;;36.13;19.10;;;8.00;99.90;;;;;;4953690;28;20433;-74
2022/01/14 10:12:47;;;;;;;27.20;17.93;;;8.20;99.90;;;;;;4954507;28;20886;-73
2022/01/14 10:15:13;;;;;;;24.33;17.90;;;8.30;99.90;;;;;;4950174;28;20456;-74
2022/01/14 10:17:41;;;;;;;27.23;19.13;;;8.30;99.90;;;;;;4954596;28;20330;-74
2022/01/14 10:20:09;;;;;;;30.30;18.73;;;8.60;99.90;;;;;;4948804;28;20214;-74
2022/01/14 10:22:40;;;;;;;29.57;17.10;;;8.60;99.90;;;;;;4954680;28;20822;-73
2022/01/14 10:25:09;;;;;;;31.73;18.50;;;8.80;99.90;;;;;;4952983;28;20476;-74
2022/01/14 10:27:45;;;;;;;27.80;18.10;;;9.00;99.90;;;;;;4951518;28;20920;-74
2022/01/14 10:30:21;;;;;;;34.03;19.30;;;8.70;99.90;;;;;;4953317;28;20418;-74
2022/01/14 10:32:58;;;;;;;28.10;17.70;;;8.70;99.90;;;;;;4935070;29;20454;-72
2022/01/14 10:35:26;;;;;;;32.00;19.40;;;8.80;99.90;;;;;;4950286;29;20438;-74
2022/01/14 10:37:56;;;;;;;27.10;18.60;;;8.80;99.90;;;;;;4951195;28;20455;-74
2022/01/14 10:40:24;;;;;;;24.33;16.17;;;8.90;99.90;;;;;;4954541;28;20469;-75
2022/01/14 10:42:51;;;;;;;25.80;17.90;;;8.90;99.90;;;;;;4952719;28;20989;-74
2022/01/14 10:45:22;;;;;;;27.90;18.80;;;9.00;99.90;;;;;;4954050;28;20474;-75
2022/01/14 10:48:10;;;;;;;30.83;18.00;;;9.10;99.90;;;;;;4949288;28;20959;-75
2022/01/14 10:50:42;;;;;;;38.90;19.83;;;9.20;99.90;;;;;;4953181;29;20427;-75
2022/01/14 10:53:14;;;;;;;25.60;16.43;;;8.90;99.90;;;;;;4952870;28;20809;-76
2022/01/14 10:55:51;;;;;;;23.87;16.40;;;8.90;99.90;;;;;;4954213;28;20416;-75
2022/01/14 10:58:25;;;;;;;29.53;18.80;;;8.50;99.90;;;;;;4953392;28;20571;-74
2022/01/14 11:01:00;;;;;;;25.03;17.47;;;8.40;99.90;;;;;;4950860;28;20466;-75
2022/01/14 11:04:00;;;;;;;30.53;19.00;;;8.40;99.90;;;;;;4951391;28;20488;-75
2022/01/14 11:06:29;;;;;;;27.37;17.97;;;8.40;99.90;;;;;;4903590;29;20509;-75
2022/01/14 11:09:03;;;;;;;30.50;19.23;;;8.30;99.90;;;;;;4934434;29;20404;-75
2022/01/14 11:11:31;;;;;;;30.17;18.53;;;8.60;99.90;;;;;;4951250;28;20454;-75
2022/01/14 11:13:57;;;;;;;29.50;19.17;;;8.30;99.90;;;;;;4953537;28;20412;-75
2022/01/14 11:16:23;;;;;;;29.33;18.73;;;8.60;99.90;;;;;;4952357;28;20430;-75
2022/01/14 11:18:49;;;;;;;26.33;17.97;;;8.50;99.90;;;;;;4951345;28;20936;-74
2022/01/14 11:24:03;;;;;;;33.47;19.77;;;8.70;99.90;;;;;;4952291;29;20470;-74
2022/01/14 11:26:32;;;;;;;29.70;19.27;;;8.80;99.90;;;;;;4952190;28;20441;-75
2022/01/14 11:29:11;;;;;;;32.10;19.30;;;8.90;99.90;;;;;;4953396;28;20833;-75
2022/01/14 11:31:40;;;;;;;33.03;19.07;;;8.90;99.90;;;;;;4952140;28;20470;-74
2022/01/14 11:34:07;;;;;;;27.90;18.43;;;8.80;99.90;;;;;;4944469;28;20449;-74
2022/01/14 11:37:00;;;;;;;32.40;19.20;;;8.80;99.90;;;;;;4946360;29;20530;-75
2022/01/14 11:39:29;;;;;;;36.63;19.00;;;8.80;99.90;;;;;;4952600;29;20439;-73
2022/01/14 11:41:56;;;;;;;30.03;19.30;;;8.70;99.90;;;;;;4953122;28;20437;-73
2022/01/14 11:45:03;;;;;;;30.67;17.87;;;8.90;99.90;;;;;;4948726;28;20477;-73
2022/01/14 11:47:39;;;;;;;34.00;19.60;;;8.80;99.90;;;;;;4953256;28;20771;-72
2022/01/14 11:50:07;;;;;;;30.30;19.73;;;8.70;99.90;;;;;;4950424;28;20946;-75
2022/01/14 11:52:38;;;;;;;27.73;18.20;;;8.60;99.90;;;;;;4953394;28;20431;-75
2022/01/14 11:55:19;;;;;;;33.37;21.77;;;8.50;99.90;;;;;;4950374;28;20946;-73
2022/01/14 11:57:53;;;;;;;33.77;17.87;;;8.30;99.90;;;;;;4953099;28;20820;-75
2022/01/14 12:00:27;;;;;;;28.40;19.10;;;8.40;99.90;;;;;;4951256;28;20417;-74
2022/01/14 12:02:54;;;;;;;26.63;18.23;;;8.50;99.90;;;;;;4952926;28;20551;-74
2022/01/14 12:05:22;;;;;;;29.30;19.27;;;8.60;99.90;;;;;;4943935;28;20486;-75
2022/01/14 12:08:03;;;;;;;23.73;16.93;;;8.50;99.90;;;;;;4934008;29;20960;-75
2022/01/14 12:10:35;;;;;;;27.20;17.57;;;8.50;99.90;;;;;;4933476;29;20776;-72
2022/01/14 12:13:37;;;;;;;35.70;19.67;;;8.50;99.90;;;;;;4951386;29;20422;-75
2022/01/14 12:16:05;;;;;;;32.43;19.23;;;8.50;99.90;;;;;;4951071;29;20551;-72
2022/01/14 12:18:45;;;;;;;36.90;18.40;;;8.60;99.90;;;;;;4946612;29;20438;-75
2022/01/14 12:21:12;;;;;;;29.13;20.07;;;8.50;99.90;;;;;;4949469;29;20421;-74
2022/01/14 12:23:38;;;;;;;29.33;19.63;;;8.40;99.90;;;;;;4951576;28;20446;-74
2022/01/14 12:26:18;;;;;;;27.57;19.47;;;8.40;99.90;;;;;;4952595;28;20713;-74
2022/01/14 12:28:45;;;;;;;30.83;20.73;;;8.40;99.90;;;;;;4948779;28;20206;-75
2022/01/14 12:31:11;;;;;;;36.03;21.07;;;8.40;99.90;;;;;;4932654;29;21025;-74
2022/01/14 12:33:51;;;;;;;51.10;23.13;;;8.50;99.90;;;;;;4934918;29;20460;-74
2022/01/14 12:36:23;;;;;;;45.67;21.67;;;8.40;99.90;;;;;;4943399;29;20440;-74
2022/01/14 12:38:49;;;;;;;33.20;19.60;;;8.10;99.90;;;;;;4951454;28;20514;-74
2022/01/14 12:41:18;;;;;;;30.83;21.27;;;8.10;99.90;;;;;;4951023;28;20453;-74
2022/01/14 12:43:51;;;;;;;28.77;19.80;;;7.90;99.90;;;;;;4947291;28;20457;-73
2022/01/14 12:46:51;;;;;;;31.87;19.53;;;7.90;99.90;;;;;;4937449;29;20431;-74
2022/01/14 12:49:35;;;;;;;42.53;19.73;;;7.90;99.90;;;;;;4939992;29;20446;-73
2022/01/14 12:52:10;;;;;;;31.53;19.40;;;7.90;99.90;;;;;;4933439;29;20816;-75
2022/01/14 12:54:38;;;;;;;32.27;21.50;;;7.90;99.90;;;;;;4935128;29;20414;-74
2022/01/14 12:57:04;;;;;;;31.80;18.50;;;7.90;99.90;;;;;;4949429;29;20457;-74
2022/01/14 12:59:40;;;;;;;30.10;19.70;;;7.90;99.90;;;;;;4952566;28;20441;-73
2022/01/14 13:02:06;;;;;;;26.50;18.10;;;7.90;99.90;;;;;;4948367;28;21169;-74
2022/01/14 13:04:32;;;;;;;34.43;19.70;;;7.90;99.90;;;;;;4950545;28;20945;-73
2022/01/14 13:07:01;;;;;;;31.00;19.87;;;7.90;99.90;;;;;;4951161;28;20409;-73
2022/01/14 13:09:38;;;;;;;36.93;20.10;;;7.90;99.90;;;;;;4952379;28;20747;-74
2022/01/14 13:12:17;;;;;;;28.43;17.93;;;7.90;99.90;;;;;;4951971;28;20458;-73
2022/01/14 13:14:54;;;;;;;29.03;18.93;;;7.90;99.90;;;;;;4952530;28;20440;-73
2022/01/14 13:17:26;;;;;;;32.07;18.70;;;7.90;99.90;;;;;;4953211;28;20450;-74
2022/01/14 13:19:58;;;;;;;29.97;19.47;;;7.90;99.90;;;;;;4951550;29;20426;-75
2022/01/14 13:22:24;;;;;;;35.60;18.40;;;7.90;99.90;;;;;;4954768;28;20443;-74
2022/01/14 13:24:53;;;;;;;31.87;20.53;;;7.90;99.90;;;;;;4951114;29;20466;-75
2022/01/14 13:27:24;;;;;;;34.90;20.93;;;8.00;99.90;;;;;;4955699;28;20169;-75
2022/01/14 13:29:54;;;;;;;30.30;19.73;;;8.00;99.90;;;;;;4954116;28;20524;-75
2022/01/14 13:32:22;;;;;;;30.33;18.90;;;7.90;99.90;;;;;;4954206;28;20984;-75
2022/01/14 13:34:55;;;;;;;34.23;19.97;;;7.90;99.90;;;;;;4945938;28;20569;-74
2022/01/14 13:37:25;;;;;;;24.80;18.20;;;7.80;99.90;;;;;;4955547;28;21099;-74
2022/01/14 13:40:03;;;;;;;25.10;19.43;;;7.80;99.90;;;;;;4952643;29;20503;-75
2022/01/14 13:42:28;;;;;;;26.77;17.53;;;7.80;99.90;;;;;;4955536;28;20437;-74
2022/01/14 13:45:04;;;;;;;35.50;18.63;;;7.80;99.90;;;;;;4952352;28;20557;-74
2022/01/14 13:47:34;;;;;;;26.97;18.27;;;7.80;99.90;;;;;;4954320;29;20639;-74
2022/01/14 13:50:18;;;;;;;34.27;20.87;;;7.90;99.90;;;;;;4951465;28;20475;-74
2022/01/14 13:52:47;;;;;;;39.97;20.20;;;7.90;99.90;;;;;;4955023;28;20428;-73
2022/01/14 13:55:47;;;;;;;31.20;18.70;;;7.90;99.90;;;;;;4952598;28;20496;-74
2022/01/14 13:58:23;;;;;;;33.53;18.30;;;8.00;99.90;;;;;;4935864;29;20811;-74
2022/01/14 14:00:51;;;;;;;23.83;17.93;;;7.90;99.90;;;;;;4945918;29;20452;-75
2022/01/14 14:03:52;;;;;;;36.43;18.20;;;8.00;99.90;;;;;;4943269;28;20404;-73
2022/01/14 14:06:41;;;;;;;35.93;18.33;;;8.00;99.90;;;;;;4941167;29;20468;-74
2022/01/14 14:12:22;;;;;;;27.43;19.20;;;8.00;99.90;;;;;;4943456;29;20524;-74
2022/01/14 14:17:38;;;;;;;26.90;19.20;;;8.10;99.90;;;;;;4952990;29;20469;-74
2022/01/14 14:20:06;;;;;;;28.47;18.67;;;8.00;99.90;;;;;;4952360;28;20544;-74
2022/01/14 14:22:39;;;;;;;48.40;19.50;;;8.00;99.90;;;;;;4952719;28;20554;-74
2022/01/14 14:25:15;;;;;;;30.30;20.47;;;8.10;99.90;;;;;;4954160;28;20556;-73
2022/01/14 14:28:05;;;;;;;31.10;19.03;;;8.10;99.90;;;;;;4946166;29;20527;-73
2022/01/14 14:30:42;;;;;;;34.57;20.20;;;7.90;99.90;;;;;;4953384;28;20506;-73
2022/01/14 14:33:09;;;;;;;36.83;19.67;;;7.80;99.90;;;;;;4952855;28;20513;-73
2022/01/14 14:35:36;;;;;;;23.00;18.70;;;7.70;99.90;;;;;;4943019;28;20466;-73
2022/01/14 14:38:19;;;;;;;27.80;19.70;;;7.70;99.90;;;;;;4950097;29;20415;-74
2022/01/14 14:40:51;;;;;;;30.17;18.03;;;7.50;99.90;;;;;;4954332;28;20434;-73
2022/01/14 14:43:17;;;;;;;30.90;19.13;;;7.40;99.90;;;;;;4954363;28;20440;-73
2022/01/14 14:45:43;;;;;;;29.43;18.90;;;7.30;99.90;;;;;;4955119;28;20450;-73
2022/01/14 14:48:08;;;;;;;23.67;17.50;;;7.20;99.90;;;;;;4951749;28;20504;-75
2022/01/14 14:50:35;;;;;;;38.97;17.80;;;7.10;99.90;;;;;;4950568;28;20261;-75
2022/01/14 14:53:03;;;;;;;29.60;18.30;;;7.00;99.90;;;;;;4953969;28;20615;-75
2022/01/14 14:55:31;;;;;;;30.73;19.70;;;6.80;99.90;;;;;;4953059;28;20456;-75
2022/01/14 14:57:58;;;;;;;30.10;19.13;;;6.70;99.90;;;;;;4954476;28;20400;-75
2022/01/14 15:00:24;;;;;;;32.70;19.57;;;6.60;99.90;;;;;;4949493;28;20448;-73
2022/01/14 15:02:53;;;;;;;27.07;17.50;;;6.50;99.90;;;;;;4947773;28;20506;-73
2022/01/14 15:05:20;;;;;;;26.43;16.97;;;6.40;99.90;;;;;;4945513;28;20459;-73
2022/01/14 15:07:46;;;;;;;33.03;17.57;;;6.20;99.90;;;;;;4954513;28;20412;-73
2022/01/14 15:10:15;;;;;;;28.73;18.20;;;6.00;99.90;;;;;;4952130;28;20530;-73
2022/01/14 15:12:40;;;;;;;23.77;17.37;;;5.90;99.90;;;;;;4950329;28;20471;-73
2022/01/14 15:15:09;;;;;;;46.63;18.20;;;5.80;99.90;;;;;;4952317;28;20923;-73
2022/01/14 15:20:29;;;;;;;32.93;18.60;;;5.60;99.90;;;;;;4943448;28;20948;-72
2022/01/14 15:22:56;;;;;;;30.10;17.37;;;5.40;99.90;;;;;;4950116;28;20451;-74
2022/01/14 15:25:23;;;;;;;26.97;16.97;;;5.30;99.90;;;;;;4953324;28;20266;-74
2022/01/14 15:27:49;;;;;;;33.20;18.60;;;5.10;99.90;;;;;;4952617;28;20572;-75
2022/01/14 15:30:16;;;;;;;24.90;17.63;;;5.00;99.90;;;;;;4953644;28;21123;-75
2022/01/14 15:32:42;;;;;;;33.03;18.17;;;4.90;99.90;;;;;;4948733;28;20688;-75
2022/01/14 15:35:08;;;;;;;28.03;17.70;;;4.80;99.90;;;;;;4943959;28;20431;-74
2022/01/14 15:37:33;;;;;;;31.93;17.20;;;4.70;99.90;;;;;;4952281;28;20446;-74
2022/01/14 15:40:03;;;;;;;27.67;17.10;;;4.60;99.90;;;;;;4953441;28;20553;-75
2022/01/14 15:42:34;;;;;;;27.60;18.70;;;4.50;99.90;;;;;;4952148;28;20207;-74
2022/01/14 15:45:01;;;;;;;30.37;17.60;;;4.40;99.90;;;;;;4949986;28;20572;-74
2022/01/14 15:47:26;;;;;;;24.90;15.80;;;4.40;99.90;;;;;;4952188;28;20479;-74
2022/01/14 15:49:52;;;;;;;27.00;17.50;;;4.20;99.90;;;;;;4949894;28;20536;-74
2022/01/14 15:52:17;;;;;;;31.70;17.60;;;4.10;99.90;;;;;;4952430;28;20204;-74
2022/01/14 15:54:43;;;;;;;28.30;16.90;;;4.10;99.90;;;;;;4940852;29;20193;-74
2022/01/14 15:57:08;;;;;;;32.87;17.20;;;4.00;99.90;;;;;;4953030;28;20287;-73
2022/01/14 15:59:34;;;;;;;32.93;17.27;;;3.90;99.90;;;;;;4953325;28;20193;-74
2022/01/14 16:02:00;;;;;;;26.90;15.90;;;3.80;99.90;;;;;;4951107;28;20209;-75
2022/01/14 16:04:25;;;;;;;30.23;17.97;;;3.60;99.90;;;;;;4952577;28;20609;-74
2022/01/14 16:06:51;;;;;;;38.50;18.90;;;3.50;99.90;;;;;;4952863;28;20189;-75
2022/01/14 16:09:16;;;;;;;28.90;17.43;;;3.40;99.90;;;;;;4953150;28;20190;-75
2022/01/14 16:11:44;;;;;;;29.40;17.07;;;3.40;99.90;;;;;;4952966;28;20293;-74
2022/01/14 16:14:20;;;;;;;29.63;18.20;;;3.30;99.90;;;;;;4952308;28;20183;-75
2022/01/14 16:16:46;;;;;;;25.93;15.87;;;3.20;99.90;;;;;;4952235;28;20423;-73
2022/01/14 16:19:11;;;;;;;32.03;16.83;;;3.10;99.90;;;;;;4953260;28;20420;-74
2022/01/14 16:21:37;;;;;;;39.53;17.23;;;3.00;99.90;;;;;;4953080;28;20252;-74
2022/01/14 16:24:03;;;;;;;27.97;16.90;;;2.90;99.90;;;;;;4953139;28;20524;-74
2022/01/14 16:26:28;;;;;;;34.77;18.60;;;2.90;99.90;;;;;;4953158;28;20413;-74
2022/01/14 16:28:54;;;;;;;35.87;16.13;;;2.80;99.90;;;;;;4953234;28;20181;-74
2022/01/14 16:31:19;;;;;;;30.43;16.73;;;2.60;99.90;;;;;;4952804;28;20198;-74
2022/01/14 16:33:45;;;;;;;34.07;17.07;;;2.50;99.90;;;;;;4952946;28;20177;-74
2022/01/14 16:36:10;;;;;;;41.17;19.30;;;2.50;99.90;;;;;;4953418;28;20181;-75
2022/01/14 16:38:37;;;;;;;32.53;17.30;;;2.40;99.90;;;;;;4953160;28;20183;-74
2022/01/14 16:41:02;;;;;;;30.97;17.30;;;2.40;99.90;;;;;;4952825;28;20193;-74
2022/01/14 16:43:33;;;;;;;30.50;16.07;;;2.30;99.90;;;;;;4953060;28;20845;-74
2022/01/14 16:46:03;;;;;;;32.10;16.23;;;2.20;99.90;;;;;;4953660;28;20240;-74
2022/01/14 16:48:29;;;;;;;27.37;16.10;;;2.20;99.90;;;;;;4956792;28;20410;-74
2022/01/14 16:50:56;;;;;;;27.93;16.47;;;2.20;99.90;;;;;;4956440;28;20911;-74
2022/01/14 16:53:28;;;;;;;24.27;15.93;;;2.10;99.90;;;;;;4956479;28;20420;-74
2022/01/14 16:55:54;;;;;;;38.13;19.27;;;2.00;99.90;;;;;;4956545;28;20486;-74
2022/01/14 16:58:20;;;;;;;27.80;16.80;;;2.00;99.90;;;;;;4956663;28;20387;-74
2022/01/14 17:00:46;;;;;;;26.73;17.37;;;1.90;99.90;;;;;;4954741;29;20408;-74
2022/01/14 17:03:12;;;;;;;27.10;16.60;;;1.80;99.90;;;;;;4956371;28;20177;-74
2022/01/14 17:05:37;;;;;;;29.13;17.00;;;1.90;99.90;;;;;;4956418;28;20932;-74
2022/01/14 17:08:03;;;;;;;33.23;17.60;;;1.80;99.90;;;;;;4956326;28;20228;-75
2022/01/14 17:10:30;;;;;;;25.43;17.27;;;1.70;99.90;;;;;;4956329;28;20181;-74
2022/01/14 17:12:56;;;;;;;29.13;16.90;;;1.70;99.90;;;;;;4955957;28;20631;-74
2022/01/14 17:15:22;;;;;;;27.40;17.50;;;1.70;99.90;;;;;;4956330;28;20983;-74
2022/01/14 17:17:47;;;;;;;32.13;19.90;;;1.70;99.90;;;;;;4956175;28;20509;-74
2022/01/14 17:20:13;;;;;;;22.77;16.83;;;1.60;99.90;;;;;;4956182;28;20742;-74
2022/01/14 17:22:39;;;;;;;28.10;16.47;;;1.60;99.90;;;;;;4955988;28;20200;-74
2022/01/14 17:25:05;;;;;;;29.77;18.43;;;1.50;99.90;;;;;;4955842;28;20442;-74
2022/01/14 17:27:31;;;;;;;36.80;17.27;;;1.50;99.90;;;;;;4956118;28;20170;-74
2022/01/14 17:29:56;;;;;;;27.50;16.80;;;1.50;99.90;;;;;;4955701;28;20439;-74
2022/01/14 17:32:24;;;;;;;27.30;18.73;;;1.40;99.90;;;;;;4955773;28;20216;-74
2022/01/14 17:34:50;;;;;;;34.03;18.33;;;1.40;99.90;;;;;;4955555;28;20523;-74
2022/01/14 17:37:16;;;;;;;30.03;19.67;;;1.30;99.90;;;;;;4956002;28;20951;-75